Aviation Digital Data Service (ADDS)

Output produced by METARs form (1133 UTC 19 January 2018)
found at http://www.aviationweather.gov/adds/metars/
 
LHDC 191115Z 20010KT 9999 FEW010 SCT040 BKN083 05/02 Q1008 NOSIG
LHDC 191045Z 22011KT 9999 FEW010 BKN083 06/03 Q1008 NOSIG
LHDC 191015Z 23006KT 9999 FEW010 SCT083 05/02 Q1008 NOSIG
LHDC 190945Z 23008KT 9999 FEW010 SCT083 04/02 Q1008 NOSIG
LHDC 190915Z 23009KT 9999 FEW006 SCT083 03/01 Q1008 NOSIG
LHDC 190845Z 22009KT CAVOK 03/01 Q1007 NOSIG
LHDC 190815Z 22009KT CAVOK 03/00 Q1007 NOSIG
LHDC 190745Z 22012KT CAVOK 02/00 Q1007 NOSIG
LHDC 190715Z 22013KT CAVOK 02/M00 Q1006 NOSIG
LHDC 190645Z 22013KT CAVOK 02/M00 Q1006 NOSIG
LHDC 190615Z 22012KT CAVOK 02/M00 Q1006 NOSIG
LHDC 190545Z 21013KT CAVOK 02/M01 Q1005 NOSIG